createdAt,value
2022-08-26T14:55:12.450Z,973.25
2022-08-26T15:07:12.940Z,973.13
2022-08-26T15:19:13.281Z,973.03
2022-08-26T15:31:13.881Z,973.08
2022-08-26T15:43:27.705Z,973.05
2022-08-26T15:55:14.664Z,972.93
2022-08-26T16:07:15.132Z,972.93
2022-08-26T16:19:15.608Z,972.81
2022-08-26T16:31:16.095Z,972.80
2022-08-26T16:43:16.510Z,972.79
2022-08-26T16:55:16.911Z,972.77
2022-08-26T17:07:17.414Z,972.80
2022-08-26T17:19:17.888Z,972.83
2022-08-26T17:31:18.399Z,972.86
2022-08-26T17:43:18.780Z,972.86
2022-08-26T17:55:19.272Z,972.99
2022-08-26T18:07:19.684Z,972.95
2022-08-26T18:19:20.174Z,973.13
2022-08-26T18:31:20.650Z,973.20
2022-08-26T18:43:21.093Z,973.17
2022-08-26T18:55:21.493Z,973.39
2022-08-26T19:07:21.976Z,973.36
2022-08-26T19:19:22.432Z,973.62
2022-08-26T19:31:22.945Z,973.71
2022-08-26T19:43:23.345Z,973.77
2022-08-26T19:55:23.767Z,973.82
2022-08-26T20:07:24.219Z,973.80
2022-08-26T20:19:24.735Z,973.81
2022-08-26T20:31:25.210Z,973.85
2022-08-26T20:43:25.621Z,973.86
2022-08-26T20:55:26.073Z,973.91
2022-08-26T21:07:26.553Z,973.79
2022-08-26T21:19:26.984Z,973.78
2022-08-26T21:31:27.469Z,973.75
2022-08-26T21:43:35.430Z,973.71
2022-08-26T21:55:28.333Z,973.77
2022-08-26T22:07:28.819Z,973.64
2022-08-26T22:19:29.281Z,973.61
2022-08-26T22:31:38.082Z,973.55
2022-08-26T22:43:30.152Z,973.58
2022-08-26T22:55:30.618Z,973.40
2022-08-26T23:07:31.088Z,973.40
2022-08-26T23:19:31.535Z,973.41
